• Join FlightAware (Why Join?)
  • Login
  • US Flag 
09:27AM EDT


 

Airport Tracker/Info


-or-


 

Live Flight TrackerFlight Track Log ✈ AWI3725 ✈ 24-Apr-2014 ✈ KBGR - KDCA

Flight Track Log - Related Links

Times and Time Zones

All times are in EDT time to prevent confusion due to time zone crossing. See the AWI3725 flight status page for this flight to view local times or setup timezone preferences in your user account.

Time Position Orientation Groundspeed Altitude Reporting Facility
EDT Latitude Longitude Course Direction KTS MPH feet Rate Location/Type
12:58PM 44.8331 -68.8692 221° Southwest 154 177 2,700  Level Boston Center
12:59PM 44.8042 -68.9464 242° Southwest 239 275 4,800 2,400 Climbing Boston Center
01:00PM 44.7286 -69.0408 222° Southwest 291 335 7,700 2,820 Climbing Boston Center
01:01PM 44.6631 -69.1217 221° Southwest 303 349 10,600 2,520 Climbing Boston Center
01:02PM 44.5964 -69.2031 221° Southwest 308 354 12,900 2,160 Climbing Boston Center
01:03PM 44.5264 -69.2886 221° Southwest 327 376 15,100 1,980 Climbing Boston Center
01:04PM 44.4558 -69.3772 222° Southwest 331 381 17,000 1,800 Climbing Boston Center
01:05PM 44.3794 -69.4683 220° Southwest 352 405 18,800 1,620 Climbing Boston Center
01:06PM 44.2267 -69.5764 221° Southwest  Level FlightAware Approximate
01:06PM 44.3028 -69.5628 221° Southwest 360 414 20,300  Level Boston Center
01:07PM 44.2231 -69.6600 221° Southwest 372 428 21,700 1,260 Climbing Boston Center
01:08PM 44.1433 -69.7578 221° Southwest 377 434 22,900 1,200 Climbing Boston Center
01:09PM 44.0619 -69.8547 221° Southwest 379 436 24,200 1,020 Climbing Boston Center
01:11PM 43.9803 -69.9536 221° Southwest 382 440 25,100 840 Climbing Boston Center
01:12PM 43.8992 -70.0544 222° Southwest 384 442 26,000 780 Climbing Boston Center
01:13PM 43.8133 -70.1572 221° Southwest 399 459 26,800 720 Climbing Boston Center
01:14PM 43.7256 -70.2569 219° Southwest 404 465 27,500 540 Climbing Boston Center
01:15PM 43.6375 -70.3592 220° Southwest 410 472 28,000 720 Climbing Boston Center
01:16PM 43.5489 -70.4647 221° Southwest 413 475 29,000 780 Climbing Boston Center
01:17PM 43.4597 -70.5681 220° Southwest 415 478 29,600 480 Climbing Boston Center
01:18PM 43.3425 -70.6661 211° Southwest 440 506 30,000 180 Climbing Boston Center
01:19PM 43.2306 -70.7386 205° Southwest 445 512 30,000  Level Boston Center
01:20PM 43.1147 -70.8111 205° Southwest 459 528 30,000  Level Boston Center
01:21PM 42.9922 -70.8756 201° Southwest 468 539 30,000  Level Boston Center
01:22PM 42.8672 -70.9358 199° South 476 548 30,000  Level Boston Center
01:23PM 42.7389 -70.9994 200° South 486 559 30,000  Level Boston Center
01:24PM 42.5836 -71.0739 199° South 493 567 30,000  Level Boston Center
01:25PM 42.5042 -71.1911 227° Southwest 430 495 30,000  Level Boston Center
01:26PM 42.4528 -71.3283 243° Southwest 411 473 30,000  Level Boston Center
01:27PM 42.4019 -71.4664 244° Southwest 411 473 30,000  Level Boston Center
01:28PM 42.3481 -71.6097 243° Southwest 413 475 30,000  Level Boston Center
01:29PM 42.2964 -71.7503 244° Southwest 416 479 30,000  Level Boston Center
01:30PM 42.2447 -71.8906 244° Southwest 416 479 30,000  Level Boston Center
01:31PM 42.1914 -72.0303 243° Southwest 416 479 30,000  Level Boston Center
01:32PM 42.1397 -72.1692 243° Southwest 416 479 30,000  Level Boston Center
01:33PM 42.0753 -72.3347 242° Southwest 416 479 30,000  Level Boston Center
01:34PM 42.0231 -72.4731 243° Southwest 414 476 30,000  Level Boston Center
01:35PM 41.9703 -72.6111 243° Southwest 414 476 30,000  Level Boston Center
01:36PM 41.9025 -72.7397 235° Southwest 430 495 30,000  Level Boston Center
01:37PM 41.8167 -72.8572 226° Southwest 439 505 30,000  Level Boston Center
01:38PM 41.7300 -72.9756 226° Southwest 441 507 30,000  Level Boston Center
01:39PM 41.6447 -73.0906 225° Southwest 439 505 30,000  Level Boston Center
01:40PM 41.5589 -73.2067 225° Southwest 439 505 30,000 -60 Level Boston Center
01:41PM 41.4708 -73.3247 225° Southwest 438 504 29,900 -540 Descending Boston Center
01:42PM 41.3844 -73.4425 226° Southwest 442 509 28,900 -960 Descending Boston Center
01:43PM 41.2956 -73.5619 225° Southwest 454 522 28,000 -480 Descending Boston Center
01:44PM 41.2031 -73.7128 231° Southwest 442 509 28,000  Level Boston Center
01:45PM 41.1292 -73.8369 232° Southwest 434 499 28,000  Level Boston Center
01:46PM 41.0558 -73.9594 232° Southwest 430 495 28,000  Level Boston Center
01:47PM 40.9828 -74.0817 232° Southwest 428 493 28,000  Level Boston Center
01:48PM 40.9117 -74.2019 232° Southwest 425 489 28,000  Level Boston Center
01:49PM 40.8392 -74.3222 231° Southwest 424 488 28,000  Level Boston Center
01:50PM 40.7589 -74.4511 231° Southwest 422 486 28,000 -240 Level Boston Center
01:52PM 40.6750 -74.5881 231° Southwest 430 495 27,600 -660 Descending New York Center
01:53PM 40.6044 -74.7072 232° Southwest 425 489 26,600 -1,020 Descending New York Center
01:54PM 40.5342 -74.8125 229° Southwest 411 473 25,600 -1,020 Descending New York Center
01:55PM 40.4661 -74.9094 227° Southwest 391 450 24,600 -1,020 Descending New York Center
01:56PM 40.3958 -75.0114 228° Southwest 386 444 23,600 -1,020 Descending New York Center
01:57PM 40.3258 -75.1050 226° Southwest 381 438 22,600 -840 Descending New York Center
01:58PM 40.2553 -75.2067 228° Southwest 381 438 22,000 -300 Descending New York Center
01:59PM 40.1892 -75.2978 226° Southwest 371 427 22,000  Level New York Center
02:00PM 40.1186 -75.3961 227° Southwest 366 421 22,000  Level New York Center
02:01PM 40.0481 -75.4944 227° Southwest 372 428 22,000  Level New York Center
02:02PM 39.9731 -75.5978 227° Southwest 378 435 22,000  Level New York Center
02:03PM 39.8978 -75.7064 228° Southwest 389 448 22,000 -840 Level New York Center
02:04PM 39.8306 -75.8150 231° Southwest 401 461 20,400 -1,680 Descending New York Center
02:05PM 39.7636 -75.9183 230° Southwest 385 443 18,700 -1,620 Descending New York Center
02:06PM 39.7006 -76.0189 231° Southwest 373 429 17,300 -1,500 Descending New York Center
02:07PM 39.6356 -76.1247 231° Southwest 368 423 15,700 -1,680 Descending New York Center
02:08PM 39.5803 -76.2172 232° Southwest 358 412 14,100 -1,620 Descending Washington Center
02:09PM 39.5183 -76.3139 230° Southwest 354 407 12,500 -1,020 Descending Washington Center
02:10PM 39.4564 -76.4100 230° Southwest 352 405 12,000 -300 Descending Washington Center
02:11PM 39.3753 -76.4853 216° Southwest 359 413 12,000 -120 Level Washington Center
02:11PM 39.3000 -76.5500 214° Southwest 347 399 11,800 -900 Descending Potomac TRACON
02:12PM 39.2333 -76.6167 218° Southwest 344 396 10,600 -900 Descending Potomac TRACON
02:13PM 39.1667 -76.6667 210° Southwest 291 335 10,000 -300 Descending Potomac TRACON
02:14PM 39.1000 -76.7333 218° Southwest 242 278 10,000  Level Potomac TRACON
02:15PM 39.0500 -76.8000 226° Southwest 246 283 10,000  Level Potomac TRACON
02:16PM 39.0000 -76.8500 218° Southwest 242 278 10,000 -300 Level Potomac TRACON
02:17PM 38.9861 -76.8831 242° Southwest 243 280 9,600 -1,020 Descending Washington Center
02:18PM 38.9350 -76.9369 219° Southwest 243 280 8,400 -1,080 Descending Washington Center
02:19PM 38.8672 -76.9436 184° South 250 288 7,500 -1,080 Descending Washington Center
02:20PM 38.7925 -76.9456 181° South 232 267 6,200 -900 Descending Washington Center
02:21PM 38.7339 -76.9428 178° South 221 254 5,700 -780 Descending Washington Center
02:22PM 38.6728 -76.9361 175° South 220 253 4,600 -840 Descending Washington Center
02:23PM 38.6158 -76.9294 175° South 215 247 4,000 -300 Descending Washington Center
02:24PM 38.5622 -76.9239 175° South 204 235 4,000 -420 Level Washington Center
02:25PM 38.5283 -76.9742 229° Southwest 191 220 3,200 -480 Descending Washington Center
02:26PM 38.5683 -77.0125 323° Northwest 194 223 3,000 -120 Descending Washington Center
02:27PM 38.6214 -77.0206 353° North 186 214 3,000  Level Washington Center
02:28PM 38.6833 -77.0167 North 179 206 3,000 -420 Level Potomac TRACON
02:29PM 38.7333 -77.0333 345° North 177 204 2,200 -780 Descending Potomac TRACON
02:30PM 38.7667 -77.0333 360° North 172 198 1,500 -720 Descending Potomac TRACON
02:31PM 38.8167 -77.0167 15° North 141 162 800 -720 Descending Potomac TRACON